Time;durP1;ratioP1;P1;durP2;ratioP2;P2;SDS_P1;SDS_P2;PMS_P1;PMS_P2;Temp;Humidity;BMP_temperature;BMP_pressure;BME280_temperature;BME280_humidity;BME280_pressure;Samples;Min_cycle;Max_cycle;Signal;HPM_P1;HPM_P2
2023/03/10 00:02:18;;;;;;;7.27;4.50;;;8.50;99.90;;;;;;5054465;28;20476;-54
2023/03/10 00:04:44;;;;;;;6.93;5.10;;;8.60;99.90;;;;;;5054252;28;20943;-54
2023/03/10 00:07:10;;;;;;;7.60;4.77;;;8.50;99.90;;;;;;5053060;28;20855;-53
2023/03/10 00:09:35;;;;;;;9.30;4.63;;;8.60;99.90;;;;;;5050720;28;20287;-53
2023/03/10 00:12:01;;;;;;;5.63;3.70;;;8.70;99.90;;;;;;5055933;28;20216;-54
2023/03/10 00:14:26;;;;;;;6.10;3.30;;;8.70;99.90;;;;;;5049554;28;20177;-52
2023/03/10 00:16:52;;;;;;;6.23;3.70;;;8.80;99.90;;;;;;5059404;28;20188;-55
2023/03/10 00:19:18;;;;;;;6.60;3.37;;;8.80;99.90;;;;;;5046890;28;20188;-53
2023/03/10 00:21:44;;;;;;;8.43;3.77;;;8.80;99.90;;;;;;5058125;28;20185;-53
2023/03/10 00:24:10;;;;;;;6.37;3.50;;;8.80;99.90;;;;;;5052767;28;20596;-54
2023/03/10 00:26:37;;;;;;;9.47;3.20;;;8.90;99.90;;;;;;5069876;28;20943;-53
2023/03/10 00:29:03;;;;;;;6.43;2.97;;;8.90;99.90;;;;;;5047800;28;20479;-53
2023/03/10 00:31:30;;;;;;;7.77;3.50;;;9.00;99.90;;;;;;5057500;28;20454;-52
2023/03/10 00:33:57;;;;;;;8.00;3.00;;;8.90;99.90;;;;;;5050512;28;20919;-54
2023/03/10 00:36:25;;;;;;;10.50;2.73;;;8.80;99.90;;;;;;5046009;28;20480;-54
2023/03/10 00:38:53;;;;;;;11.27;4.03;;;9.00;99.90;;;;;;5044313;28;20447;-53
2023/03/10 00:41:20;;;;;;;7.50;2.87;;;9.00;99.90;;;;;;5045090;28;20465;-53
2023/03/10 00:43:46;;;;;;;8.30;2.70;;;9.10;99.90;;;;;;5047717;28;20461;-54
2023/03/10 00:46:13;;;;;;;7.83;2.37;;;9.20;75.30;;;;;;5051621;28;20450;-52
2023/03/10 00:48:39;;;;;;;6.47;2.47;;;9.20;65.30;;;;;;5051709;28;20496;-52
2023/03/10 00:51:05;;;;;;;11.50;2.70;;;9.20;55.60;;;;;;5064960;28;20460;-53
2023/03/10 00:53:33;;;;;;;6.83;2.60;;;9.20;52.50;;;;;;5044630;28;20824;-54
2023/03/10 00:56:17;;;;;;;5.70;2.33;;;9.30;27.30;;;;;;5048323;28;20450;-53
2023/03/10 00:58:44;;;;;;;6.50;2.27;;;9.30;23.40;;;;;;5046341;28;20447;-54
2023/03/10 01:01:15;;;;;;;4.90;2.77;;;9.40;22.40;;;;;;5058595;28;20445;-53
2023/03/10 01:03:41;;;;;;;4.13;1.93;;;9.40;23.90;;;;;;5047420;28;21010;-56
2023/03/10 01:06:08;;;;;;;8.27;3.50;;;9.30;22.80;;;;;;5055571;28;20434;-54
2023/03/10 01:08:33;;;;;;;5.40;2.37;;;9.40;3.70;;;;;;5050764;28;20467;-54
2023/03/10 01:10:59;;;;;;;8.90;2.30;;;9.50;1.00;;;;;;5047460;28;20439;-54
2023/03/10 01:13:25;;;;;;;7.10;2.70;;;9.50;1.00;;;;;;5050929;28;20189;-54
2023/03/10 01:15:50;;;;;;;4.03;2.10;;;9.50;1.00;;;;;;5051236;28;20534;-53
2023/03/10 01:18:18;;;;;;;6.60;2.10;;;9.60;1.00;;;;;;5051126;28;20193;-53
2023/03/10 01:20:44;;;;;;;8.70;2.50;;;9.50;1.00;;;;;;5061658;28;20179;-53
2023/03/10 01:23:36;;;;;;;5.47;1.73;;;9.60;1.00;;;;;;5063261;28;20466;-53
2023/03/10 01:26:02;;;;;;;5.73;2.23;;;9.50;1.00;;;;;;5046206;28;20251;-53
2023/03/10 01:28:27;;;;;;;7.57;2.10;;;9.50;1.00;;;;;;5049621;28;20993;-53
2023/03/10 01:30:53;;;;;;;5.73;1.80;;;9.60;1.00;;;;;;5055353;28;20189;-53
2023/03/10 01:33:18;;;;;;;7.33;2.77;;;9.60;1.00;;;;;;5053371;28;20176;-54
2023/03/10 01:35:44;;;;;;;8.70;1.93;;;9.60;1.00;;;;;;5054392;28;20195;-53
2023/03/10 01:38:10;;;;;;;5.90;2.17;;;9.50;1.00;;;;;;5051883;28;20184;-55
2023/03/10 01:40:37;;;;;;;6.80;2.70;;;9.50;1.00;;;;;;5054178;28;20267;-55
2023/03/10 01:43:18;;;;;;;4.93;2.10;;;9.60;1.00;;;;;;5043124;28;20458;-54
2023/03/10 01:45:43;;;;;;;5.43;1.80;;;9.60;1.00;;;;;;5044019;28;20823;-53
2023/03/10 01:48:10;;;;;;;12.23;2.47;;;9.60;1.00;;;;;;5050813;28;20466;-52
2023/03/10 01:50:36;;;;;;;5.87;1.80;;;9.60;1.00;;;;;;5051059;28;20180;-53
2023/03/10 01:53:01;;;;;;;4.53;1.87;;;9.50;1.00;;;;;;5047459;28;20460;-56
2023/03/10 01:55:31;;;;;;;6.20;1.90;;;9.60;1.00;;;;;;5046799;28;20518;-56
2023/03/10 01:57:57;;;;;;;5.97;2.30;;;9.50;1.00;;;;;;5048938;28;20470;-55
2023/03/10 02:00:25;;;;;;;6.30;2.43;;;9.50;1.00;;;;;;5052008;28;20463;-52
2023/03/10 02:03:11;;;;;;;6.80;2.40;;;9.60;1.00;;;;;;5066349;28;20192;-55
2023/03/10 02:05:44;;;;;;;5.83;2.03;;;9.70;1.00;;;;;;5045837;28;20655;-53
2023/03/10 02:08:11;;;;;;;7.93;2.10;;;9.70;1.00;;;;;;5050933;28;20462;-52
2023/03/10 02:10:37;;;;;;;5.97;2.50;;;9.50;1.00;;;;;;5051852;28;20454;-53
2023/03/10 02:13:03;;;;;;;8.60;2.63;;;9.60;1.00;;;;;;5051626;28;20458;-54
2023/03/10 02:15:31;;;;;;;3.77;2.40;;;9.70;1.00;;;;;;5049069;28;20871;-52
2023/03/10 02:17:58;;;;;;;7.43;2.70;;;9.70;1.00;;;;;;5054836;28;20438;-54
2023/03/10 02:20:44;;;;;;;5.27;2.20;;;9.90;1.00;;;;;;5058252;28;20446;-53
2023/03/10 02:23:22;;;;;;;8.90;3.17;;;9.70;1.00;;;;;;5050526;28;20492;-52
2023/03/10 02:25:57;;;;;;;3.77;2.10;;;9.70;1.00;;;;;;5053653;28;20484;-54
2023/03/10 02:28:23;;;;;;;4.40;2.33;;;9.80;1.00;;;;;;5049253;28;20470;-54
2023/03/10 02:30:52;;;;;;;4.00;2.70;;;9.80;1.00;;;;;;5058903;28;20450;-53
2023/03/10 02:33:21;;;;;;;5.30;3.10;;;9.80;1.00;;;;;;5050224;28;20479;-54
2023/03/10 02:35:47;;;;;;;5.90;3.30;;;9.80;1.00;;;;;;5049208;28;20435;-53
2023/03/10 02:38:12;;;;;;;6.87;2.53;;;9.90;1.00;;;;;;5054639;28;20804;-53
2023/03/10 02:40:46;;;;;;;4.10;2.30;;;9.90;1.00;;;;;;5051504;28;20313;-55
2023/03/10 02:43:17;;;;;;;4.00;2.40;;;9.90;1.00;;;;;;5054761;28;20532;-54
2023/03/10 02:45:45;;;;;;;7.70;3.73;;;10.00;1.00;;;;;;5052771;28;20446;-53
2023/03/10 02:48:27;;;;;;;3.23;2.03;;;10.10;1.00;;;;;;5050491;28;20518;-55
2023/03/10 02:50:53;;;;;;;3.57;2.17;;;10.10;1.00;;;;;;5047891;28;20465;-53
2023/03/10 02:53:23;;;;;;;4.40;1.60;;;10.10;1.00;;;;;;5046158;28;20545;-55
2023/03/10 02:55:49;;;;;;;1.73;1.30;;;10.50;1.00;;;;;;5046750;28;20417;-53
2023/03/10 02:58:15;;;;;;;3.43;1.30;;;10.80;1.00;;;;;;5048089;28;20453;-52
2023/03/10 03:00:44;;;;;;;4.23;1.70;;;10.90;1.00;;;;;;5054587;28;20225;-54
2023/03/10 03:03:10;;;;;;;4.20;1.63;;;11.00;1.00;;;;;;5052598;28;20478;-54
2023/03/10 03:05:37;;;;;;;2.60;1.17;;;11.20;1.00;;;;;;5053050;28;20445;-52
2023/03/10 03:08:05;;;;;;;2.83;1.17;;;11.30;1.00;;;;;;5049962;28;20428;-52
2023/03/10 03:10:31;;;;;;;5.37;1.60;;;11.20;1.00;;;;;;5051123;28;20990;-53
2023/03/10 03:12:56;;;;;;;5.53;1.50;;;11.20;1.00;;;;;;5058001;28;20442;-52
2023/03/10 03:15:23;;;;;;;2.90;1.37;;;11.20;1.00;;;;;;5048354;28;20451;-52
2023/03/10 03:17:49;;;;;;;3.40;1.30;;;11.30;1.00;;;;;;5048854;28;20602;-52
2023/03/10 03:20:16;;;;;;;3.87;1.53;;;11.30;1.00;;;;;;5056833;28;20419;-54
2023/03/10 03:22:43;;;;;;;8.77;1.70;;;11.30;1.00;;;;;;5060757;28;20576;-53
2023/03/10 03:25:11;;;;;;;3.10;1.50;;;11.10;1.00;;;;;;5047094;28;20442;-54
2023/03/10 03:27:37;;;;;;;6.50;2.70;;;11.10;1.00;;;;;;5054891;28;20493;-55
2023/03/10 03:30:08;;;;;;;3.53;1.30;;;11.10;1.00;;;;;;5066918;28;20474;-52
2023/03/10 03:32:35;;;;;;;3.93;1.77;;;11.00;1.00;;;;;;5066247;28;20465;-53
2023/03/10 03:35:03;;;;;;;3.47;1.80;;;10.90;1.00;;;;;;5050923;28;21001;-54
2023/03/10 03:37:28;;;;;;;2.37;1.63;;;10.90;1.00;;;;;;5050784;28;20459;-54
2023/03/10 03:39:54;;;;;;;4.90;1.70;;;11.00;1.00;;;;;;5051726;28;20820;-53
2023/03/10 03:42:20;;;;;;;4.17;1.30;;;11.00;1.00;;;;;;5050047;28;20687;-56
2023/03/10 03:44:47;;;;;;;4.00;1.40;;;11.00;1.00;;;;;;5052440;28;20262;-53
2023/03/10 03:47:12;;;;;;;2.00;1.30;;;11.00;1.00;;;;;;5046644;28;20867;-53
2023/03/10 03:49:38;;;;;;;3.17;1.37;;;11.00;1.00;;;;;;5049592;28;20509;-53
2023/03/10 03:52:05;;;;;;;2.30;1.00;;;11.00;1.00;;;;;;5053425;28;20916;-53
2023/03/10 03:54:31;;;;;;;3.10;1.40;;;11.00;1.00;;;;;;5049413;28;20482;-53
2023/03/10 03:56:57;;;;;;;4.37;1.37;;;10.90;1.00;;;;;;5052057;28;20500;-53
2023/03/10 03:59:23;;;;;;;4.63;1.10;;;10.90;1.00;;;;;;5050929;28;20196;-53
2023/03/10 04:01:49;;;;;;;5.17;1.40;;;10.90;1.00;;;;;;5050679;28;20196;-53
2023/03/10 04:04:14;;;;;;;7.20;1.33;;;10.90;1.00;;;;;;5059071;28;20195;-52
2023/03/10 04:06:40;;;;;;;3.63;1.80;;;10.90;1.00;;;;;;5058318;28;20429;-55
2023/03/10 04:09:07;;;;;;;4.50;1.60;;;10.90;1.00;;;;;;5065947;28;20216;-53
2023/03/10 04:11:32;;;;;;;3.47;1.80;;;10.90;1.00;;;;;;5052007;28;20450;-53
2023/03/10 04:13:58;;;;;;;2.57;2.37;;;10.80;1.00;;;;;;5050998;28;20413;-53
2023/03/10 04:16:24;;;;;;;9.47;3.60;;;10.70;1.00;;;;;;5050429;28;20187;-53
2023/03/10 04:18:49;;;;;;;6.40;3.03;;;10.60;1.00;;;;;;5052330;28;20676;-53
2023/03/10 04:21:16;;;;;;;7.10;3.50;;;10.50;1.00;;;;;;5063337;28;20199;-52
2023/03/10 04:23:42;;;;;;;6.40;3.57;;;10.40;1.00;;;;;;5054994;28;20275;-54
2023/03/10 04:26:09;;;;;;;5.93;3.77;;;10.50;1.00;;;;;;5054793;28;20795;-54
2023/03/10 04:28:35;;;;;;;9.37;3.50;;;10.40;1.00;;;;;;5051713;28;20467;-53
2023/03/10 04:31:01;;;;;;;4.60;3.37;;;10.30;1.00;;;;;;5056526;28;20450;-52
2023/03/10 04:33:27;;;;;;;6.00;4.07;;;10.30;1.00;;;;;;5056551;28;20436;-55
2023/03/10 04:35:53;;;;;;;4.23;3.33;;;10.30;1.00;;;;;;5061331;28;20192;-52
2023/03/10 04:38:19;;;;;;;9.00;4.73;;;10.40;1.00;;;;;;5051281;28;20203;-56
2023/03/10 04:40:44;;;;;;;6.70;3.90;;;10.40;1.00;;;;;;5055158;28;20436;-52
2023/03/10 04:43:10;;;;;;;5.30;4.63;;;10.30;1.00;;;;;;5047659;28;20458;-53
2023/03/10 04:45:36;;;;;;;8.30;3.63;;;10.30;1.00;;;;;;5053129;28;20184;-54
2023/03/10 04:48:02;;;;;;;5.10;3.90;;;10.30;1.00;;;;;;5062741;28;20910;-55
2023/03/10 04:50:28;;;;;;;6.87;4.20;;;10.30;1.00;;;;;;5052717;28;20534;-52
2023/03/10 04:52:53;;;;;;;4.30;3.07;;;10.30;1.00;;;;;;5060713;28;20691;-53
2023/03/10 04:55:19;;;;;;;4.97;3.30;;;10.30;1.00;;;;;;5056845;28;20189;-52
2023/03/10 04:57:45;;;;;;;6.00;3.47;;;10.40;1.00;;;;;;5049251;28;20629;-54
2023/03/10 05:00:11;;;;;;;6.33;2.60;;;10.40;1.00;;;;;;5053060;28;20705;-55
2023/03/10 05:02:38;;;;;;;2.33;1.60;;;10.40;1.00;;;;;;5059755;28;20647;-56
2023/03/10 05:05:05;;;;;;;3.27;1.20;;;10.30;1.00;;;;;;5046812;28;20482;-55
2023/03/10 05:07:31;;;;;;;2.13;1.30;;;10.70;1.00;;;;;;5051019;28;20937;-53
2023/03/10 05:09:57;;;;;;;2.53;1.37;;;11.00;1.00;;;;;;5046686;28;20478;-55
2023/03/10 05:12:22;;;;;;;1.27;0.93;;;11.10;1.00;;;;;;5054897;28;20192;-52
2023/03/10 05:14:48;;;;;;;2.43;1.23;;;11.20;1.00;;;;;;5046658;28;20915;-52
2023/03/10 05:17:14;;;;;;;1.50;0.73;;;11.30;1.00;;;;;;5047676;28;20196;-56
2023/03/10 05:19:40;;;;;;;1.70;0.97;;;11.30;1.00;;;;;;5047035;28;20433;-53
2023/03/10 05:22:06;;;;;;;0.97;0.87;;;11.40;1.00;;;;;;5047791;28;20291;-55
2023/03/10 05:24:32;;;;;;;1.80;0.80;;;11.40;1.00;;;;;;5056304;28;20192;-53
2023/03/10 05:27:01;;;;;;;2.20;1.10;;;11.40;1.00;;;;;;5053501;28;20446;-56
2023/03/10 05:29:27;;;;;;;1.80;1.40;;;11.40;1.00;;;;;;5047668;28;20474;-54
2023/03/10 05:31:52;;;;;;;2.40;1.20;;;11.50;1.00;;;;;;5047832;28;20429;-53
2023/03/10 05:34:18;;;;;;;2.40;1.40;;;11.40;1.00;;;;;;5063837;28;20249;-53
2023/03/10 05:36:44;;;;;;;5.17;1.20;;;11.40;1.00;;;;;;5061871;28;20561;-56
2023/03/10 05:39:10;;;;;;;2.23;1.43;;;11.20;1.00;;;;;;5047109;28;20218;-53
2023/03/10 05:41:36;;;;;;;4.53;1.47;;;11.20;1.00;;;;;;5048001;28;20279;-53
2023/03/10 05:44:02;;;;;;;2.57;1.33;;;11.20;1.00;;;;;;5046429;28;20504;-53
2023/03/10 05:46:28;;;;;;;2.00;1.37;;;11.30;1.00;;;;;;5048536;28;20446;-53
2023/03/10 05:48:55;;;;;;;2.60;1.13;;;11.50;1.00;;;;;;5047954;28;20223;-54
2023/03/10 05:51:21;;;;;;;4.80;1.57;;;11.60;1.00;;;;;;5050916;28;20886;-52
2023/03/10 05:53:47;;;;;;;2.50;1.00;;;11.50;1.00;;;;;;5054731;28;20887;-53
2023/03/10 05:56:16;;;;;;;2.50;1.30;;;11.60;1.00;;;;;;5046665;28;20451;-53
2023/03/10 05:58:43;;;;;;;3.17;1.10;;;11.50;1.00;;;;;;5050163;28;20195;-55
2023/03/10 06:01:08;;;;;;;4.00;1.17;;;11.50;1.00;;;;;;5054516;28;21030;-53
2023/03/10 06:03:35;;;;;;;4.00;2.17;;;11.70;1.00;;;;;;5053180;28;20532;-54
2023/03/10 06:06:02;;;;;;;1.13;1.00;;;11.80;1.00;;;;;;5052468;28;20473;-55
2023/03/10 06:08:28;;;;;;;2.63;2.10;;;11.80;1.00;;;;;;5045761;28;20498;-54
2023/03/10 06:10:54;;;;;;;1.37;1.20;;;11.80;1.00;;;;;;5041161;28;20611;-55
2023/03/10 06:13:21;;;;;;;2.40;1.23;;;11.70;1.00;;;;;;5043312;28;20983;-54
2023/03/10 06:15:55;;;;;;;2.30;1.33;;;11.90;1.00;;;;;;5048529;28;20447;-55
2023/03/10 06:18:21;;;;;;;1.67;1.43;;;11.90;1.00;;;;;;5046128;28;20455;-55
2023/03/10 06:20:47;;;;;;;2.77;1.20;;;11.90;1.00;;;;;;5047917;28;20812;-53
2023/03/10 06:23:14;;;;;;;3.77;1.27;;;11.90;1.00;;;;;;5050066;28;20458;-53
2023/03/10 06:25:40;;;;;;;2.53;2.30;;;12.00;1.00;;;;;;5043124;28;20442;-53
2023/03/10 06:28:06;;;;;;;1.93;1.57;;;12.10;1.00;;;;;;5047251;28;20957;-54
2023/03/10 06:30:32;;;;;;;2.83;1.37;;;12.00;1.00;;;;;;5050496;28;21026;-55
2023/03/10 06:32:59;;;;;;;4.07;1.97;;;11.80;1.00;;;;;;5052976;28;20500;-52
2023/03/10 06:35:25;;;;;;;3.10;2.00;;;11.80;1.00;;;;;;5051659;28;20442;-54
2023/03/10 06:37:50;;;;;;;2.90;2.60;;;12.00;1.00;;;;;;5054798;28;20445;-55
2023/03/10 06:40:16;;;;;;;1.70;1.60;;;12.20;1.00;;;;;;5046602;28;20984;-55
2023/03/10 06:42:43;;;;;;;1.33;1.00;;;12.40;1.00;;;;;;5048200;28;20204;-55
2023/03/10 06:45:12;;;;;;;5.90;1.20;;;12.40;1.00;;;;;;5053119;28;20197;-53
2023/03/10 06:47:38;;;;;;;2.43;1.17;;;12.40;1.00;;;;;;5054686;28;20446;-53
2023/03/10 06:50:04;;;;;;;2.13;1.47;;;12.40;1.00;;;;;;5049183;28;20476;-53
2023/03/10 06:52:34;;;;;;;2.60;1.53;;;12.40;1.00;;;;;;5049125;28;20187;-53
2023/03/10 06:55:01;;;;;;;1.57;1.47;;;12.40;1.00;;;;;;5056555;28;20425;-55
2023/03/10 06:57:27;;;;;;;0.93;0.53;;;12.40;1.00;;;;;;5051427;28;21843;-53
2023/03/10 06:59:54;;;;;;;1.10;0.90;;;12.50;1.00;;;;;;5052191;28;20494;-55
2023/03/10 07:02:20;;;;;;;0.73;0.60;;;12.40;1.00;;;;;;5054281;28;20454;-55
2023/03/10 07:04:46;;;;;;;3.13;0.77;;;12.40;1.00;;;;;;5057365;28;20196;-54
2023/03/10 07:07:12;;;;;;;1.50;0.83;;;12.50;1.00;;;;;;5053223;28;20192;-51
2023/03/10 07:09:38;;;;;;;2.40;0.70;;;12.50;1.00;;;;;;5050260;28;20265;-55
2023/03/10 07:12:04;;;;;;;1.10;0.50;;;12.50;1.00;;;;;;5048358;28;20451;-52
2023/03/10 07:14:30;;;;;;;0.73;0.67;;;12.50;1.00;;;;;;5049056;28;20196;-54
2023/03/10 07:16:56;;;;;;;1.87;0.80;;;12.50;1.00;;;;;;5055566;28;20409;-55
2023/03/10 07:19:22;;;;;;;1.93;1.10;;;12.40;1.00;;;;;;5049944;28;20242;-54
2023/03/10 07:21:48;;;;;;;1.40;0.77;;;12.50;1.00;;;;;;5049907;28;20462;-55
2023/03/10 07:24:14;;;;;;;2.50;0.93;;;12.40;1.00;;;;;;5045068;28;20490;-55
2023/03/10 07:26:40;;;;;;;2.70;1.30;;;12.40;1.00;;;;;;5053995;28;20543;-53
2023/03/10 07:29:05;;;;;;;0.73;0.60;;;12.40;1.00;;;;;;5046566;28;20444;-55
2023/03/10 07:31:33;;;;;;;1.43;0.80;;;12.70;1.00;;;;;;5046822;28;20193;-55
2023/03/10 07:34:00;;;;;;;1.27;0.90;;;12.90;1.00;;;;;;5046303;28;20189;-55
2023/03/10 07:36:28;;;;;;;1.17;1.07;;;12.90;1.00;;;;;;5049438;28;20443;-55
2023/03/10 07:38:54;;;;;;;1.07;0.80;;;12.90;1.00;;;;;;5051350;28;20468;-53
2023/03/10 07:41:20;;;;;;;0.97;0.97;;;13.00;1.00;;;;;;5048881;28;20508;-52
2023/03/10 07:43:49;;;;;;;1.20;0.80;;;13.00;1.00;;;;;;5046838;28;20508;-54
2023/03/10 07:46:15;;;;;;;1.03;0.93;;;13.00;1.00;;;;;;5056170;28;20477;-56
2023/03/10 07:48:41;;;;;;;4.13;1.33;;;13.10;1.00;;;;;;5045738;28;20507;-54
2023/03/10 07:51:08;;;;;;;0.67;0.50;;;13.00;1.00;;;;;;5047493;28;20199;-53
2023/03/10 07:53:34;;;;;;;1.30;0.60;;;13.10;1.00;;;;;;5047865;28;20446;-53
2023/03/10 07:56:03;;;;;;;1.10;0.60;;;13.10;1.00;;;;;;5044112;28;20439;-52
2023/03/10 07:58:29;;;;;;;1.23;0.60;;;13.20;1.00;;;;;;5052379;28;20446;-54
2023/03/10 08:00:58;;;;;;;0.77;0.60;;;13.10;1.00;;;;;;5048383;28;20479;-53
2023/03/10 08:03:25;;;;;;;0.93;0.83;;;13.10;1.00;;;;;;5051975;28;20215;-53
2023/03/10 08:05:51;;;;;;;1.50;0.70;;;13.20;1.00;;;;;;5054736;28;20487;-53
2023/03/10 08:08:17;;;;;;;0.70;0.53;;;13.20;1.00;;;;;;5049258;28;20607;-54
2023/03/10 08:10:43;;;;;;;1.63;0.70;;;13.30;1.00;;;;;;5045634;28;20192;-54
2023/03/10 08:13:09;;;;;;;0.93;0.90;;;13.30;1.00;;;;;;5056984;28;20427;-54
2023/03/10 08:15:37;;;;;;;1.10;0.80;;;13.40;1.00;;;;;;5063832;28;20450;-53
2023/03/10 08:18:04;;;;;;;1.40;1.10;;;13.50;1.00;;;;;;5048594;28;20921;-56
2023/03/10 08:20:31;;;;;;;0.70;0.60;;;13.50;1.00;;;;;;5053823;28;20955;-53
2023/03/10 08:22:57;;;;;;;1.00;0.60;;;13.60;1.00;;;;;;5046524;28;20604;-54
2023/03/10 08:25:22;;;;;;;1.43;0.73;;;13.60;1.00;;;;;;5053273;28;20562;-51
2023/03/10 08:27:49;;;;;;;1.00;0.70;;;13.70;1.00;;;;;;5048885;28;20432;-52
2023/03/10 08:30:15;;;;;;;1.90;0.80;;;13.80;1.00;;;;;;5053690;28;20208;-53
2023/03/10 08:32:41;;;;;;;1.53;1.03;;;13.90;1.00;;;;;;5061254;28;20468;-52
2023/03/10 08:35:07;;;;;;;1.63;0.77;;;14.00;1.00;;;;;;5064125;28;20405;-53
2023/03/10 08:37:33;;;;;;;1.63;0.60;;;14.10;1.00;;;;;;5047786;28;20580;-54
2023/03/10 08:39:59;;;;;;;2.03;0.77;;;14.20;1.00;;;;;;5045813;28;20421;-55
2023/03/10 08:42:25;;;;;;;1.50;0.80;;;14.20;1.00;;;;;;5046970;28;20188;-53
2023/03/10 08:44:54;;;;;;;1.33;0.70;;;14.20;1.00;;;;;;5049932;28;20192;-54
2023/03/10 08:47:20;;;;;;;2.10;1.10;;;14.40;1.00;;;;;;5047949;28;20998;-55
2023/03/10 08:49:47;;;;;;;1.30;0.70;;;14.30;1.00;;;;;;5055745;28;20472;-54
2023/03/10 08:52:12;;;;;;;1.73;0.63;;;14.40;1.00;;;;;;5048404;28;20180;-52
2023/03/10 08:54:38;;;;;;;1.30;1.00;;;14.50;1.00;;;;;;5061022;28;20516;-54
2023/03/10 08:57:03;;;;;;;0.90;0.80;;;14.60;1.00;;;;;;5047623;28;20193;-54
2023/03/10 08:59:29;;;;;;;0.87;0.77;;;14.50;1.00;;;;;;5058728;28;20242;-54
2023/03/10 09:01:55;;;;;;;0.80;0.60;;;14.40;1.00;;;;;;5068885;28;20242;-54
2023/03/10 09:04:21;;;;;;;2.17;0.80;;;14.20;1.00;;;;;;5069746;28;20512;-52
2023/03/10 09:06:46;;;;;;;1.50;0.70;;;14.00;1.00;;;;;;5048094;28;20188;-55
2023/03/10 09:09:13;;;;;;;0.87;0.67;;;14.10;1.00;;;;;;5060755;28;20502;-54
2023/03/10 09:11:40;;;;;;;2.57;0.63;;;14.30;1.00;;;;;;5054239;28;20650;-52
2023/03/10 09:14:07;;;;;;;1.73;1.17;;;14.30;1.00;;;;;;5052411;28;20421;-53
2023/03/10 09:16:32;;;;;;;1.70;0.60;;;14.30;1.00;;;;;;5045439;28;20504;-53
2023/03/10 09:18:59;;;;;;;3.30;1.00;;;14.40;1.00;;;;;;5052396;28;20500;-56
2023/03/10 09:21:28;;;;;;;3.47;1.10;;;14.40;1.00;;;;;;5047235;28;20181;-53
2023/03/10 09:23:53;;;;;;;1.87;0.63;;;14.60;1.00;;;;;;5046829;28;20447;-53
2023/03/10 09:26:20;;;;;;;1.37;0.57;;;14.70;1.00;;;;;;5057336;28;20780;-54
2023/03/10 09:28:48;;;;;;;1.43;0.83;;;14.80;1.00;;;;;;5048528;28;20227;-53
2023/03/10 09:31:21;;;;;;;3.00;1.10;;;15.00;1.00;;;;;;5057573;28;20438;-54
2023/03/10 09:33:47;;;;;;;2.80;0.90;;;15.10;1.00;;;;;;5053375;28;20426;-53
2023/03/10 09:36:13;;;;;;;0.80;0.53;;;15.00;1.00;;;;;;5049448;28;20424;-54
2023/03/10 09:38:40;;;;;;;1.23;0.67;;;14.90;1.00;;;;;;5059424;28;20461;-54
2023/03/10 09:41:15;;;;;;;1.40;0.60;;;14.80;1.00;;;;;;5048325;28;20184;-53
2023/03/10 09:43:49;;;;;;;3.43;0.90;;;14.80;1.00;;;;;;5047347;28;20441;-54
2023/03/10 09:46:54;;;;;;;0.90;0.73;;;14.80;1.00;;;;;;5050178;28;20424;-53
2023/03/10 09:49:46;;;;;;;3.13;1.50;;;14.50;1.00;;;;;;5049810;28;20880;-53
2023/03/10 09:52:33;;;;;;;1.83;0.90;;;14.60;1.00;;;;;;5063042;28;20466;-53
2023/03/10 09:55:12;;;;;;;0.70;0.60;;;16.30;1.00;;;;;;5046048;28;20486;-53
2023/03/10 09:57:39;;;;;;;1.10;0.80;;;15.20;1.00;;;;;;5048075;28;20472;-55
2023/03/10 10:00:10;;;;;;;4.50;1.20;;;15.60;1.00;;;;;;5053730;28;20458;-52
2023/03/10 10:02:42;;;;;;;1.90;0.83;;;16.00;1.00;;;;;;5057559;28;20421;-53
2023/03/10 10:05:18;;;;;;;4.57;0.93;;;16.00;1.00;;;;;;5046768;28;20520;-52
2023/03/10 10:07:51;;;;;;;1.40;1.07;;;16.10;1.00;;;;;;5052982;28;20506;-54
2023/03/10 10:10:26;;;;;;;1.00;0.80;;;16.30;1.00;;;;;;5049397;28;20478;-52
2023/03/10 10:12:53;;;;;;;2.07;0.90;;;16.40;1.00;;;;;;5051901;28;20434;-52
2023/03/10 10:15:22;;;;;;;2.47;0.80;;;16.40;1.00;;;;;;5065690;28;21088;-52
2023/03/10 10:18:18;;;;;;;1.60;0.90;;;16.40;1.00;;;;;;5063150;28;20454;-54
2023/03/10 10:21:07;;;;;;;1.37;0.97;;;16.60;1.00;;;;;;5051083;28;20530;-53
2023/03/10 10:23:45;;;;;;;1.17;0.70;;;17.10;1.00;;;;;;5051856;28;20777;-53
2023/03/10 10:26:26;;;;;;;1.40;0.60;;;17.40;1.00;;;;;;5056688;28;20434;-54
2023/03/10 10:28:55;;;;;;;2.30;1.10;;;17.20;1.00;;;;;;5054791;28;20454;-52
2023/03/10 10:31:24;;;;;;;4.60;1.00;;;17.20;1.00;;;;;;5061201;28;20486;-53
2023/03/10 10:33:55;;;;;;;1.07;0.80;;;17.10;1.00;;;;;;5050714;28;20443;-54
2023/03/10 10:36:24;;;;;;;1.30;0.80;;;17.00;1.00;;;;;;5051838;28;20398;-54
2023/03/10 10:38:52;;;;;;;1.33;0.57;;;16.70;1.00;;;;;;5054917;28;20537;-52
2023/03/10 10:41:28;;;;;;;1.03;0.57;;;16.60;1.00;;;;;;5062883;28;20934;-52
2023/03/10 10:44:05;;;;;;;1.50;0.63;;;16.60;1.00;;;;;;5064303;28;20475;-52
2023/03/10 10:46:31;;;;;;;1.17;0.60;;;16.60;1.00;;;;;;5049718;28;20803;-53
2023/03/10 10:49:02;;;;;;;4.10;0.90;;;16.40;1.00;;;;;;5050076;28;20448;-56
2023/03/10 10:51:34;;;;;;;3.67;0.70;;;16.30;1.00;;;;;;5060358;28;20450;-55
2023/03/10 10:54:27;;;;;;;1.47;0.70;;;16.20;1.00;;;;;;5056708;28;20867;-54
2023/03/10 10:57:00;;;;;;;1.90;0.60;;;16.20;1.00;;;;;;5050726;28;20442;-53
2023/03/10 10:59:35;;;;;;;2.47;0.80;;;16.10;1.00;;;;;;5053798;28;20453;-54
2023/03/10 11:02:01;;;;;;;2.40;0.93;;;16.10;1.00;;;;;;5060743;28;20413;-54
2023/03/10 11:04:42;;;;;;;1.13;0.80;;;16.30;1.00;;;;;;5060856;28;20451;-54
2023/03/10 11:07:11;;;;;;;1.27;1.17;;;16.30;1.00;;;;;;5051771;28;20500;-53
2023/03/10 11:09:37;;;;;;;2.63;0.93;;;16.20;1.00;;;;;;5054505;28;20569;-54
2023/03/10 11:12:12;;;;;;;3.93;1.63;;;16.20;1.00;;;;;;5057784;28;20550;-53
2023/03/10 11:15:00;;;;;;;3.97;0.80;;;16.20;1.00;;;;;;5052770;28;20442;-54
2023/03/10 11:17:37;;;;;;;2.83;1.03;;;16.30;1.00;;;;;;5053250;28;20749;-54
2023/03/10 11:20:23;;;;;;;2.33;0.77;;;16.30;1.00;;;;;;5055627;28;20434;-54
2023/03/10 11:23:03;;;;;;;1.03;0.60;;;16.20;1.00;;;;;;5061088;28;20435;-55
2023/03/10 11:26:05;;;;;;;3.23;1.00;;;16.10;1.00;;;;;;5053319;28;20451;-53
2023/03/10 11:28:59;;;;;;;3.33;0.60;;;16.10;1.00;;;;;;5052029;28;20457;-54
2023/03/10 11:31:50;;;;;;;3.43;0.73;;;16.20;1.00;;;;;;5052381;28;20783;-53
2023/03/10 11:34:29;;;;;;;2.30;0.60;;;16.30;1.00;;;;;;5045817;28;20443;-53
2023/03/10 11:36:57;;;;;;;2.40;0.60;;;16.40;1.00;;;;;;5049278;28;20425;-54
2023/03/10 11:39:28;;;;;;;2.27;0.87;;;16.50;1.00;;;;;;5062434;28;20441;-54
2023/03/10 11:42:22;;;;;;;1.37;0.70;;;16.60;1.00;;;;;;5071097;28;20723;-54
2023/03/10 11:45:02;;;;;;;1.90;0.67;;;16.70;1.00;;;;;;5008969;28;20521;-55
2023/03/10 11:47:54;;;;;;;6.20;1.07;;;16.70;1.00;;;;;;5046844;28;20427;-54
2023/03/10 11:50:45;;;;;;;1.30;0.77;;;16.70;1.00;;;;;;5047131;28;20474;-54
2023/03/10 11:53:29;;;;;;;2.10;0.90;;;16.70;1.00;;;;;;5047842;28;20448;-54
2023/03/10 11:55:56;;;;;;;2.70;0.77;;;16.90;1.00;;;;;;5046681;28;20425;-54
2023/03/10 11:58:46;;;;;;;1.40;0.67;;;16.90;1.00;;;;;;5042465;28;20481;-55
2023/03/10 12:01:16;;;;;;;5.23;0.90;;;16.90;1.00;;;;;;5047757;28;20855;-55
2023/03/10 12:04:06;;;;;;;2.50;0.77;;;16.90;1.00;;;;;;5053371;28;20447;-55
2023/03/10 12:06:40;;;;;;;4.07;1.00;;;16.70;1.00;;;;;;5049523;28;20417;-54
2023/03/10 12:09:07;;;;;;;2.03;0.87;;;16.80;1.00;;;;;;5048472;28;20981;-54
2023/03/10 12:11:34;;;;;;;2.47;0.80;;;16.90;1.00;;;;;;5055800;28;20416;-54
2023/03/10 12:14:00;;;;;;;2.53;0.70;;;17.10;1.00;;;;;;5047736;28;20636;-54
2023/03/10 12:16:34;;;;;;;1.53;0.77;;;17.30;1.00;;;;;;5048359;28;20425;-54
2023/03/10 12:19:00;;;;;;;3.13;0.93;;;17.30;1.00;;;;;;5052841;28;20878;-53
2023/03/10 12:21:30;;;;;;;2.07;0.93;;;17.30;1.00;;;;;;5059155;28;20474;-53
2023/03/10 12:23:59;;;;;;;1.90;0.70;;;17.20;1.00;;;;;;5048117;28;20279;-55
2023/03/10 12:26:37;;;;;;;3.17;1.00;;;17.20;1.00;;;;;;5048473;28;20437;-53
2023/03/10 12:29:23;;;;;;;3.60;0.80;;;17.40;1.00;;;;;;5047037;28;20479;-53
2023/03/10 12:31:50;;;;;;;2.83;0.90;;;17.30;1.00;;;;;;5053264;28;20454;-55
2023/03/10 12:34:21;;;;;;;2.03;0.60;;;17.20;1.00;;;;;;5050675;28;20512;-55
2023/03/10 12:36:52;;;;;;;2.30;1.00;;;17.00;1.00;;;;;;5068362;28;20425;-54
2023/03/10 12:39:26;;;;;;;4.00;1.23;;;16.70;1.00;;;;;;5046702;28;20520;-55
2023/03/10 12:42:02;;;;;;;1.33;0.90;;;16.50;1.00;;;;;;5043663;28;20422;-55
2023/03/10 12:44:42;;;;;;;2.97;0.83;;;16.30;1.00;;;;;;5044000;28;20477;-56
2023/03/10 12:47:18;;;;;;;2.10;0.90;;;16.10;1.00;;;;;;5044723;28;20916;-53
2023/03/10 12:49:54;;;;;;;1.10;0.67;;;16.20;1.00;;;;;;5044487;28;20440;-55
2023/03/10 12:52:46;;;;;;;3.30;1.17;;;16.40;1.00;;;;;;5047575;28;20449;-55
2023/03/10 12:55:22;;;;;;;2.13;0.77;;;16.40;1.00;;;;;;5047607;28;20455;-55
2023/03/10 12:58:01;;;;;;;1.73;0.70;;;16.50;1.00;;;;;;5052300;28;20429;-56
2023/03/10 13:00:58;;;;;;;1.70;1.20;;;16.60;1.00;;;;;;5042117;28;20944;-56
2023/03/10 13:03:30;;;;;;;2.90;0.80;;;16.60;1.00;;;;;;5047712;28;20790;-55
2023/03/10 13:06:21;;;;;;;2.20;0.67;;;16.50;1.00;;;;;;5052458;28;20500;-54
2023/03/10 13:09:13;;;;;;;3.10;1.00;;;16.40;1.00;;;;;;5054717;28;20444;-55
2023/03/10 13:11:40;;;;;;;2.23;0.87;;;16.50;1.00;;;;;;5042839;28;20436;-54